Accueil
METAR-TAF:

METAR-TAF

Aéroports :

Cordova, Alaska, États-Unis

latitude: 60-29-30N, longitude: 145-28-40W, altitude: 13 m

Observation

Le bulletin a été fait il y a 1 heure et 6 minutes, à 21:53 UTC
Vent calme
Température -4°C
Humidité 86%
Pression 1001 hPa
Visibilité: 16.1 km
Ciel couvert à une hauteur de 4000 ft

METAR: PACV 222153Z 00000KT 10SM OVC040 M04/M06 A2957 RMK AO2 SLP013 T10391056

Heure: 13:59 (22:59 UTC)

Prévision

Le bulletin a été fait il y a 5 heures et 29 minutes, à 17:30 UTC
Prévision valable du 22 à 18 UTC au 23 à 18 UTC
Vent 3 kt de direction variable
Visibilité: 10 km
Ciel couvert à une hauteur de 5000 ft
averses à proximité
A partir de 23 à 0400 UTC
Vent 3 kt de direction variable
Visibilité: 10 km
Nuages épars à une hauteur de 5000 ft
Nuages fragmentés à une hauteur de 10000 ft

TAF: PACV 221730Z 2218/2318 VRB03KT P6SM VCSH OVC050 FM230400 VRB03KT P6SM SCT050 BKN100

Observations et prévisions météorologiques de plus de 4000 aéroports (messages METAR et TAF).

Les stations disponibles sont représentées par des disques jaunes et rouges sur la carte.

Passer la souris dessus pour voir le nom de la station.

Cliquer dessus pour voir les observations et prévisions météorologiques.

Pour changer de carte: cliquez sur les boutons verts avec une croix noire pour zoomer, sur le bouton vert avec un tiret pour effectuer un zoom arrière, ou sur les flèches vertes pour les cartes adjacentes.


METAR-TAF: